createdAt,value
2023-04-19T00:01:46.356Z,3.60
2023-04-19T00:04:15.261Z,4.28
2023-04-19T00:06:42.322Z,4.28
2023-04-19T00:09:09.303Z,4.28
2023-04-19T00:11:35.823Z,3.85
2023-04-19T00:14:02.284Z,4.57
2023-04-19T00:16:28.839Z,4.47
2023-04-19T00:18:55.476Z,4.57
2023-04-19T00:21:22.003Z,4.28
2023-04-19T00:23:48.437Z,6.40
2023-04-19T00:26:15.905Z,5.93
2023-04-19T00:28:42.574Z,7.38
2023-04-19T00:31:09.104Z,4.28
2023-04-19T00:33:35.647Z,4.47
2023-04-19T00:36:02.358Z,4.32
2023-04-19T00:38:28.871Z,4.30
2023-04-19T00:40:55.821Z,5.28
2023-04-19T00:43:22.266Z,12.55
2023-04-19T00:45:58.648Z,7.25
2023-04-19T00:48:25.469Z,6.38
2023-04-19T00:50:51.958Z,9.55
2023-04-19T00:53:18.450Z,10.73
2023-04-19T00:56:02.828Z,12.10
2023-04-19T00:58:31.555Z,7.78
2023-04-19T01:00:58.256Z,7.40
2023-04-19T01:03:27.699Z,9.23
2023-04-19T01:05:55.577Z,5.43
2023-04-19T01:08:24.311Z,5.63
2023-04-19T01:10:51.118Z,5.18
2023-04-19T01:13:17.567Z,7.07
2023-04-19T01:15:44.169Z,4.95
2023-04-19T01:18:11.318Z,5.32
2023-04-19T01:20:37.781Z,6.18
2023-04-19T01:23:04.251Z,7.85
2023-04-19T01:25:31.014Z,5.55
2023-04-19T01:27:57.461Z,4.57
2023-04-19T01:30:23.959Z,6.50
2023-04-19T01:32:50.658Z,5.30
2023-04-19T01:35:21.414Z,6.30
2023-04-19T01:37:47.863Z,5.35
2023-04-19T01:40:14.405Z,5.95
2023-04-19T01:42:40.852Z,5.43
2023-04-19T01:45:07.503Z,5.85
2023-04-19T01:47:34.030Z,6.38
2023-04-19T01:50:00.761Z,6.75
2023-04-19T01:52:27.217Z,8.13
2023-04-19T01:54:53.642Z,6.15
2023-04-19T01:57:20.555Z,5.50
2023-04-19T01:59:47.051Z,6.50
2023-04-19T02:02:13.561Z,10.02
2023-04-19T02:04:40.107Z,6.82
2023-04-19T02:07:06.581Z,7.82
2023-04-19T02:09:35.647Z,6.97
2023-04-19T02:12:02.359Z,7.38
2023-04-19T02:14:28.806Z,10.05
2023-04-19T02:16:55.883Z,7.40
2023-04-19T02:19:22.496Z,10.68
2023-04-19T02:21:49.033Z,6.30
2023-04-19T02:24:15.914Z,7.85
2023-04-19T02:26:42.513Z,8.52
2023-04-19T02:29:09.019Z,8.40
2023-04-19T02:31:37.769Z,11.13
2023-04-19T02:34:04.341Z,6.82
2023-04-19T02:36:30.819Z,7.47
2023-04-19T02:38:59.335Z,9.30
2023-04-19T02:41:25.850Z,6.45
2023-04-19T02:43:52.339Z,7.68
2023-04-19T02:46:19.149Z,6.22
2023-04-19T02:48:46.373Z,7.28
2023-04-19T02:51:16.936Z,7.05
2023-04-19T02:53:43.461Z,10.07
2023-04-19T02:56:09.836Z,7.18
2023-04-19T02:58:36.175Z,9.27
2023-04-19T03:01:02.555Z,7.85
2023-04-19T03:03:31.500Z,8.98
2023-04-19T03:05:58.166Z,9.68
2023-04-19T03:08:24.601Z,13.30
2023-04-19T03:10:51.167Z,8.23
2023-04-19T03:13:17.508Z,8.93
2023-04-19T03:15:43.878Z,9.77
2023-04-19T03:18:10.378Z,10.27
2023-04-19T03:20:36.762Z,12.07
2023-04-19T03:23:03.144Z,8.38
2023-04-19T03:25:29.552Z,8.60
2023-04-19T03:27:56.282Z,8.15
2023-04-19T03:30:22.676Z,11.65
2023-04-19T03:32:49.175Z,9.10
2023-04-19T03:35:15.696Z,9.90
2023-04-19T03:37:43.461Z,10.80
2023-04-19T03:40:10.083Z,9.07
2023-04-19T03:42:36.488Z,9.43
2023-04-19T03:45:02.949Z,11.27
2023-04-19T03:47:29.445Z,8.65
2023-04-19T03:49:56.084Z,9.13
2023-04-19T03:52:22.641Z,10.48
2023-04-19T03:54:48.989Z,8.35
2023-04-19T03:57:17.606Z,8.48
2023-04-19T03:59:44.080Z,10.02
2023-04-19T04:02:10.577Z,9.50
2023-04-19T04:04:37.239Z,9.20
2023-04-19T04:07:03.658Z,8.52
2023-04-19T04:09:30.256Z,10.30
2023-04-19T04:11:56.810Z,9.15
2023-04-19T04:14:23.735Z,9.80
2023-04-19T04:16:50.525Z,10.20
2023-04-19T04:19:21.850Z,8.68
2023-04-19T04:21:49.161Z,10.38
2023-04-19T04:24:17.810Z,12.60
2023-04-19T04:26:44.216Z,11.48
2023-04-19T04:29:10.663Z,18.23
2023-04-19T04:31:37.134Z,20.85
2023-04-19T04:34:03.507Z,20.70
2023-04-19T04:36:30.000Z,13.50
2023-04-19T04:38:57.183Z,14.63
2023-04-19T04:41:23.635Z,17.58
2023-04-19T04:44:04.561Z,19.20
2023-04-19T04:46:37.631Z,19.67
2023-04-19T04:49:04.164Z,16.77
2023-04-19T04:51:31.783Z,13.02
2023-04-19T04:53:58.522Z,14.35
2023-04-19T04:56:26.051Z,19.85
2023-04-19T04:58:54.944Z,19.60
2023-04-19T05:01:22.066Z,16.25
2023-04-19T05:03:48.478Z,15.45
2023-04-19T05:06:14.919Z,13.63
2023-04-19T05:08:41.365Z,14.90
2023-04-19T05:11:08.523Z,15.57
2023-04-19T05:13:34.886Z,16.85
2023-04-19T05:16:01.320Z,15.18
2023-04-19T05:18:27.698Z,18.38
2023-04-19T05:20:54.286Z,18.42
2023-04-19T05:23:21.259Z,22.00
2023-04-19T05:25:47.792Z,18.02
2023-04-19T05:28:14.156Z,19.30
2023-04-19T05:30:40.734Z,23.00
2023-04-19T05:33:07.328Z,20.17
2023-04-19T05:35:33.853Z,21.30
2023-04-19T05:38:00.383Z,18.65
2023-04-19T05:40:26.861Z,23.98
2023-04-19T05:42:53.345Z,19.45
2023-04-19T05:45:19.813Z,20.73
2023-04-19T05:47:46.357Z,20.85
2023-04-19T05:50:13.118Z,18.27
2023-04-19T05:52:39.585Z,19.85
2023-04-19T05:55:06.811Z,20.65
2023-04-19T05:57:33.372Z,16.70
2023-04-19T06:02:27.324Z,17.15
2023-04-19T06:04:54.169Z,18.13
2023-04-19T06:07:30.860Z,22.27
2023-04-19T06:09:59.291Z,18.20
2023-04-19T06:12:26.054Z,17.30
2023-04-19T06:14:52.699Z,21.10
2023-04-19T06:17:25.587Z,20.13
2023-04-19T06:19:52.697Z,17.92
2023-04-19T06:22:19.229Z,18.92
2023-04-19T06:24:46.141Z,18.75
2023-04-19T06:27:12.755Z,20.15
2023-04-19T06:29:39.298Z,21.25
2023-04-19T06:32:05.780Z,19.73
2023-04-19T06:34:32.315Z,21.30
2023-04-19T06:36:58.766Z,21.95
2023-04-19T06:39:25.304Z,19.73
2023-04-19T06:41:53.894Z,22.23
2023-04-19T06:44:20.738Z,25.08
2023-04-19T06:46:47.195Z,22.10
2023-04-19T06:49:13.659Z,19.58
2023-04-19T06:51:40.252Z,17.17
2023-04-19T06:54:07.673Z,20.38
2023-04-19T06:56:45.855Z,22.08
2023-04-19T06:59:17.260Z,20.38
2023-04-19T07:01:44.294Z,18.80
2023-04-19T07:04:11.545Z,19.48
2023-04-19T07:06:38.700Z,18.45
2023-04-19T07:09:06.152Z,17.80
2023-04-19T07:11:33.050Z,22.63
2023-04-19T07:14:02.435Z,18.33
2023-04-19T07:16:29.016Z,20.08
2023-04-19T07:18:55.928Z,19.48
2023-04-19T07:21:24.826Z,21.52
2023-04-19T07:23:51.278Z,20.27
2023-04-19T07:26:18.006Z,22.88
2023-04-19T07:28:44.469Z,19.70
2023-04-19T07:31:17.783Z,19.52
2023-04-19T07:33:44.443Z,21.13
2023-04-19T07:36:11.005Z,16.27
2023-04-19T07:38:37.472Z,18.95
2023-04-19T07:41:05.417Z,18.10
2023-04-19T07:43:31.941Z,17.65
2023-04-19T07:45:58.462Z,20.92
2023-04-19T07:48:25.198Z,17.55
2023-04-19T07:50:51.987Z,19.85
2023-04-19T07:53:18.585Z,18.17
2023-04-19T07:55:45.703Z,18.05
2023-04-19T07:58:12.142Z,17.10
2023-04-19T08:00:38.584Z,17.67
2023-04-19T08:03:05.184Z,19.33
2023-04-19T08:05:31.981Z,15.15
2023-04-19T08:07:58.550Z,20.58
2023-04-19T08:10:25.883Z,16.98
2023-04-19T08:13:05.031Z,20.67
2023-04-19T08:18:04.941Z,16.90
2023-04-19T08:20:32.504Z,15.20
2023-04-19T08:23:04.603Z,18.20
2023-04-19T08:25:37.308Z,17.60
2023-04-19T08:28:04.156Z,20.20
2023-04-19T08:30:30.750Z,20.77
2023-04-19T08:32:57.526Z,20.40
2023-04-19T08:35:25.288Z,17.30
2023-04-19T08:37:51.846Z,18.45
2023-04-19T08:40:18.593Z,23.05
2023-04-19T08:42:45.173Z,20.33
2023-04-19T08:45:27.094Z,20.30
2023-04-19T08:48:01.216Z,18.73
2023-04-19T08:50:34.354Z,20.48
2023-04-19T08:53:16.197Z,18.20
2023-04-19T08:56:03.553Z,20.17
2023-04-19T08:58:56.977Z,22.48
2023-04-19T09:04:02.648Z,21.00
2023-04-19T09:06:40.374Z,19.75
2023-04-19T09:11:48.589Z,19.50
2023-04-19T09:14:16.085Z,19.00
2023-04-19T09:16:45.936Z,19.95
2023-04-19T09:19:23.405Z,28.70
2023-04-19T09:21:53.629Z,21.02
2023-04-19T09:25:04.483Z,20.40
2023-04-19T09:27:26.837Z,19.88
2023-04-19T09:29:54.532Z,20.35
2023-04-19T09:32:23.451Z,20.00
2023-04-19T09:34:53.223Z,17.83
2023-04-19T09:37:32.928Z,19.50
2023-04-19T09:40:23.045Z,18.23
2023-04-19T09:48:05.369Z,19.15
2023-04-19T09:50:46.013Z,21.95
2023-04-19T09:53:20.990Z,18.23
2023-04-19T09:55:57.703Z,18.02
2023-04-19T09:58:34.387Z,17.25
2023-04-19T10:01:14.994Z,20.90
2023-04-19T10:06:14.175Z,18.17
2023-04-19T10:08:47.794Z,18.85
2023-04-19T10:11:14.226Z,17.83
2023-04-19T10:13:41.033Z,20.42
2023-04-19T10:16:18.299Z,26.35
2023-04-19T10:18:46.276Z,23.23
2023-04-19T10:21:13.311Z,24.38
2023-04-19T10:23:39.770Z,22.17
2023-04-19T10:26:07.286Z,23.58
2023-04-19T10:28:35.647Z,24.80
2023-04-19T10:31:02.885Z,29.08
2023-04-19T10:33:32.090Z,25.70
2023-04-19T10:35:59.093Z,26.13
2023-04-19T10:38:37.684Z,24.27
2023-04-19T10:41:05.363Z,25.42
2023-04-19T10:43:32.959Z,27.45
2023-04-19T10:46:01.058Z,23.17
2023-04-19T10:48:38.620Z,33.78
2023-04-19T10:51:14.534Z,26.20
2023-04-19T10:53:44.022Z,28.40
2023-04-19T10:56:10.462Z,29.83
2023-04-19T10:58:55.758Z,26.70
2023-04-19T11:01:39.781Z,31.00
2023-04-19T11:04:07.266Z,28.42
2023-04-19T11:06:34.118Z,28.88
2023-04-19T11:09:01.320Z,28.77
2023-04-19T11:11:27.772Z,29.52
2023-04-19T11:13:55.645Z,27.08
2023-04-19T11:16:31.147Z,26.02
2023-04-19T11:19:04.600Z,23.55
2023-04-19T11:21:33.525Z,22.98
2023-04-19T11:24:07.324Z,22.90
2023-04-19T11:29:03.022Z,21.17
2023-04-19T11:31:32.051Z,21.23
2023-04-19T11:33:59.024Z,23.30
2023-04-19T11:36:25.449Z,21.90
2023-04-19T11:38:52.699Z,20.25
2023-04-19T11:41:19.148Z,19.20
2023-04-19T11:43:46.825Z,15.60
2023-04-19T11:46:13.536Z,15.40
2023-04-19T11:48:49.609Z,14.13
2023-04-19T11:51:16.023Z,13.32
2023-04-19T11:53:42.394Z,12.20
2023-04-19T11:56:09.337Z,12.60
2023-04-19T11:58:48.132Z,11.38
2023-04-19T12:01:25.168Z,16.27
2023-04-19T12:03:52.938Z,13.23
2023-04-19T12:06:23.519Z,14.18
2023-04-19T12:09:06.682Z,13.27
2023-04-19T12:11:46.306Z,15.45
2023-04-19T12:14:13.480Z,12.80
2023-04-19T12:16:40.046Z,6.63
2023-04-19T12:19:17.890Z,4.38
2023-04-19T12:21:45.396Z,5.00
2023-04-19T12:24:12.323Z,5.30
2023-04-19T12:26:53.937Z,5.80
2023-04-19T12:29:24.616Z,4.85
2023-04-19T12:31:51.207Z,4.43
2023-04-19T12:34:17.560Z,5.75
2023-04-19T12:36:43.913Z,7.10
2023-04-19T12:39:10.271Z,5.75
2023-04-19T12:41:36.648Z,3.53
2023-04-19T12:44:03.099Z,6.82
2023-04-19T12:46:32.019Z,5.65
2023-04-19T12:48:58.841Z,4.07
2023-04-19T12:51:25.720Z,6.30
2023-04-19T12:53:52.324Z,4.15
2023-04-19T12:56:21.310Z,5.30
2023-04-19T12:58:47.721Z,4.28
2023-04-19T13:01:14.279Z,6.00
2023-04-19T13:03:43.178Z,6.45
2023-04-19T13:06:11.953Z,5.10
2023-04-19T13:08:44.756Z,4.32
2023-04-19T13:11:15.113Z,2.90
2023-04-19T13:13:41.538Z,4.25
2023-04-19T13:16:08.276Z,3.00
2023-04-19T13:18:34.916Z,3.80
2023-04-19T13:21:01.333Z,4.18
2023-04-19T13:23:27.755Z,3.33
2023-04-19T13:25:54.075Z,3.17
2023-04-19T13:28:20.476Z,4.18
2023-04-19T13:30:46.848Z,3.92
2023-04-19T13:33:13.203Z,4.78
2023-04-19T13:35:39.574Z,3.15
2023-04-19T13:38:06.088Z,3.25
2023-04-19T13:40:32.494Z,3.88
2023-04-19T13:42:58.902Z,2.97
2023-04-19T13:45:25.353Z,9.65
2023-04-19T13:47:51.868Z,6.57
2023-04-19T13:50:18.228Z,7.70
2023-04-19T13:52:44.615Z,4.22
2023-04-19T13:55:10.992Z,3.92
2023-04-19T13:57:37.462Z,3.95
2023-04-19T14:00:04.089Z,4.20
2023-04-19T14:02:30.833Z,4.97
2023-04-19T14:04:59.053Z,3.63
2023-04-19T14:07:25.405Z,4.28
2023-04-19T14:09:51.824Z,4.40
2023-04-19T14:12:18.211Z,5.40
2023-04-19T14:14:44.574Z,4.65
2023-04-19T14:17:10.993Z,3.92
2023-04-19T14:19:37.988Z,8.75
2023-04-19T14:22:04.411Z,5.22
2023-04-19T14:24:30.850Z,5.82
2023-04-19T14:27:10.551Z,4.68
2023-04-19T14:29:37.743Z,5.40
2023-04-19T14:32:17.206Z,4.45
2023-04-19T14:34:51.506Z,4.55
2023-04-19T14:37:18.645Z,4.88
2023-04-19T14:39:45.824Z,4.95
2023-04-19T14:42:12.624Z,4.45
2023-04-19T14:44:39.100Z,7.30
2023-04-19T14:47:05.618Z,4.18
2023-04-19T14:49:31.953Z,4.90
2023-04-19T14:51:58.349Z,6.65
2023-04-19T14:54:27.202Z,6.25
2023-04-19T14:56:53.786Z,5.03
2023-04-19T14:59:20.368Z,6.50
2023-04-19T15:01:46.877Z,5.78
2023-04-19T15:04:13.533Z,6.22
2023-04-19T15:06:40.857Z,6.75
2023-04-19T15:09:07.496Z,5.57
2023-04-19T15:11:33.941Z,5.47
2023-04-19T15:14:00.277Z,8.18
2023-04-19T15:16:26.705Z,5.15
2023-04-19T15:18:53.122Z,6.10
2023-04-19T15:21:21.244Z,6.95
2023-04-19T15:23:49.570Z,5.68
2023-04-19T15:26:16.404Z,6.35
2023-04-19T15:28:42.822Z,6.15
2023-04-19T15:31:10.298Z,7.03
2023-04-19T15:33:37.519Z,6.15
2023-04-19T15:36:04.663Z,5.18
2023-04-19T15:38:31.777Z,8.65
2023-04-19T15:40:58.726Z,8.05
2023-04-19T15:43:27.729Z,7.57
2023-04-19T15:45:54.154Z,6.63
2023-04-19T15:48:21.077Z,7.50
2023-04-19T15:50:47.500Z,6.97
2023-04-19T15:53:14.366Z,7.07
2023-04-19T15:55:41.533Z,6.95
2023-04-19T15:58:08.318Z,9.43
2023-04-19T16:00:34.774Z,8.95
2023-04-19T16:03:01.397Z,10.13
2023-04-19T16:05:28.033Z,12.00
2023-04-19T16:08:01.157Z,11.00
2023-04-19T16:10:27.515Z,5.30
2023-04-19T16:12:53.871Z,5.40
2023-04-19T16:15:20.246Z,6.28
2023-04-19T16:17:56.714Z,5.13
2023-04-19T16:20:23.202Z,11.32
2023-04-19T16:22:52.405Z,20.00
2023-04-19T16:25:20.998Z,6.95
2023-04-19T16:27:49.845Z,50.25
2023-04-19T16:30:16.552Z,17.42
2023-04-19T16:32:43.267Z,8.20
2023-04-19T16:35:10.078Z,8.85
2023-04-19T16:37:36.554Z,7.45
2023-04-19T16:40:05.222Z,7.13
2023-04-19T16:42:31.559Z,8.55
2023-04-19T16:44:57.929Z,7.28
2023-04-19T16:47:24.456Z,9.35
2023-04-19T16:49:50.923Z,10.68
2023-04-19T16:52:17.519Z,7.07
2023-04-19T16:54:44.752Z,7.32
2023-04-19T16:57:11.634Z,7.85
2023-04-19T16:59:38.396Z,8.75
2023-04-19T17:02:06.424Z,7.57
2023-04-19T17:04:33.029Z,6.72
2023-04-19T17:06:59.613Z,6.88
2023-04-19T17:09:26.040Z,7.10
2023-04-19T17:11:52.502Z,6.95
2023-04-19T17:14:21.394Z,8.07
2023-04-19T17:16:47.848Z,9.10
2023-04-19T17:19:14.541Z,9.07
2023-04-19T17:21:41.362Z,11.82
2023-04-19T17:24:07.774Z,14.07
2023-04-19T17:26:36.629Z,12.07
2023-04-19T17:29:03.276Z,13.27
2023-04-19T17:31:29.808Z,11.98
2023-04-19T17:33:56.387Z,14.65
2023-04-19T17:36:22.815Z,11.70
2023-04-19T17:38:49.200Z,8.15
2023-04-19T17:41:18.648Z,9.80
2023-04-19T17:43:45.625Z,12.02
2023-04-19T17:46:12.212Z,7.88
2023-04-19T17:48:38.678Z,9.13
2023-04-19T17:51:07.893Z,14.63
2023-04-19T17:53:36.531Z,12.20
2023-04-19T17:56:04.292Z,9.48
2023-04-19T17:58:30.985Z,11.13
2023-04-19T18:00:57.582Z,9.52
2023-04-19T18:03:26.471Z,7.95
2023-04-19T18:05:53.078Z,7.88
2023-04-19T18:08:19.447Z,7.53
2023-04-19T18:10:45.829Z,9.13
2023-04-19T18:13:12.440Z,8.48
2023-04-19T18:15:38.820Z,10.02
2023-04-19T18:18:05.407Z,10.05
2023-04-19T18:20:32.051Z,9.10
2023-04-19T18:22:59.917Z,10.88
2023-04-19T18:25:26.356Z,8.63
2023-04-19T18:27:52.743Z,13.05
2023-04-19T18:30:19.124Z,9.00
2023-04-19T18:32:47.246Z,10.20
2023-04-19T18:35:13.660Z,12.40
2023-04-19T18:37:40.255Z,12.13
2023-04-19T18:40:07.254Z,11.70
2023-04-19T18:42:33.831Z,9.80
2023-04-19T18:45:00.412Z,9.00
2023-04-19T18:47:26.866Z,9.43
2023-04-19T18:50:04.580Z,8.30
2023-04-19T18:52:33.527Z,5.82
2023-04-19T18:55:00.705Z,7.32
2023-04-19T18:57:27.976Z,9.20
2023-04-19T18:59:57.500Z,6.28
2023-04-19T19:02:24.080Z,7.25
2023-04-19T19:04:57.043Z,8.82
2023-04-19T19:07:35.600Z,12.18
2023-04-19T19:10:10.379Z,18.08
2023-04-19T19:12:43.264Z,8.95
2023-04-19T19:15:09.898Z,6.05
2023-04-19T19:17:36.377Z,7.70
2023-04-19T19:20:04.722Z,5.43
2023-04-19T19:22:31.206Z,8.82
2023-04-19T19:24:57.672Z,5.80
2023-04-19T19:27:24.224Z,6.18
2023-04-19T19:29:50.636Z,5.93
2023-04-19T19:32:17.077Z,6.88
2023-04-19T19:34:54.431Z,5.45
2023-04-19T19:37:22.729Z,7.15
2023-04-19T19:39:49.102Z,6.75
2023-04-19T19:42:16.329Z,7.22
2023-04-19T19:44:43.054Z,7.35
2023-04-19T19:47:10.887Z,5.68
2023-04-19T19:52:07.199Z,5.30
2023-04-19T19:54:33.655Z,4.25
2023-04-19T19:57:56.620Z,5.90
2023-04-19T19:59:51.368Z,6.60
2023-04-19T20:02:21.996Z,5.63
2023-04-19T20:04:48.935Z,6.22
2023-04-19T20:09:45.092Z,5.18
2023-04-19T20:12:13.254Z,4.05
2023-04-19T20:14:40.231Z,6.50
2023-04-19T20:17:06.676Z,3.92
2023-04-19T20:19:33.091Z,5.38
2023-04-19T20:22:00.482Z,5.63
2023-04-19T20:24:27.145Z,4.53
2023-04-19T20:26:57.439Z,6.82
2023-04-19T20:29:23.940Z,4.55
2023-04-19T20:31:50.518Z,4.50
2023-04-19T20:34:16.987Z,4.90
2023-04-19T20:36:46.684Z,4.75
2023-04-19T20:39:13.334Z,5.65
2023-04-19T20:41:41.059Z,4.07
2023-04-19T20:44:07.510Z,5.88
2023-04-19T20:46:36.634Z,5.00
2023-04-19T20:49:05.648Z,7.32
2023-04-19T20:51:32.258Z,4.32
2023-04-19T20:53:58.587Z,7.10
2023-04-19T20:56:25.054Z,4.47
2023-04-19T20:58:51.507Z,4.03
2023-04-19T21:01:18.294Z,5.03
2023-04-19T21:03:44.912Z,4.45
2023-04-19T21:06:11.778Z,3.92
2023-04-19T21:08:38.288Z,5.18
2023-04-19T21:11:04.750Z,5.45
2023-04-19T21:13:32.159Z,6.03
2023-04-19T21:15:58.717Z,5.68
2023-04-19T21:18:25.908Z,6.82
2023-04-19T21:20:52.747Z,7.90
2023-04-19T21:23:19.162Z,8.52
2023-04-19T21:25:45.660Z,6.50
2023-04-19T21:28:11.998Z,6.07
2023-04-19T21:30:40.783Z,5.13
2023-04-19T21:33:07.362Z,6.85
2023-04-19T21:35:33.954Z,5.25
2023-04-19T21:38:00.493Z,6.88
2023-04-19T21:40:26.982Z,5.68
2023-04-19T21:42:55.981Z,4.22
2023-04-19T21:45:27.231Z,4.57
2023-04-19T21:47:56.147Z,4.80
2023-04-19T21:50:22.534Z,6.10
2023-04-19T21:52:48.875Z,5.47
2023-04-19T21:55:15.338Z,6.32
2023-04-19T21:57:44.197Z,10.82
2023-04-19T22:00:10.891Z,5.80
2023-04-19T22:02:37.451Z,7.28
2023-04-19T22:05:04.275Z,5.63
2023-04-19T22:07:31.037Z,5.68
2023-04-19T22:09:57.998Z,6.78
2023-04-19T22:12:24.626Z,5.07
2023-04-19T22:14:51.276Z,6.03
2023-04-19T22:17:18.689Z,4.75
2023-04-19T22:19:45.517Z,7.30
2023-04-19T22:22:11.987Z,5.60
2023-04-19T22:24:50.001Z,6.22
2023-04-19T22:27:22.958Z,7.07
2023-04-19T22:29:49.335Z,6.03
2023-04-19T22:32:15.771Z,6.25
2023-04-19T22:34:42.330Z,7.03
2023-04-19T22:37:08.919Z,8.13
2023-04-19T22:39:35.301Z,6.43
2023-04-19T22:42:02.277Z,7.47
2023-04-19T22:44:28.659Z,6.72
2023-04-19T22:46:58.128Z,7.18
2023-04-19T22:49:24.579Z,6.97
2023-04-19T22:51:51.076Z,7.45
2023-04-19T22:54:17.491Z,7.25
2023-04-19T22:56:43.972Z,6.15
2023-04-19T22:59:10.542Z,5.70
2023-04-19T23:01:36.965Z,7.65
2023-04-19T23:04:03.418Z,6.28
2023-04-19T23:06:30.267Z,5.63
2023-04-19T23:08:56.670Z,5.95
2023-04-19T23:11:25.062Z,6.03
2023-04-19T23:13:54.856Z,5.72
2023-04-19T23:16:24.643Z,6.00
2023-04-19T23:18:51.642Z,5.72
2023-04-19T23:21:18.157Z,6.63
2023-04-19T23:23:44.549Z,5.63
2023-04-19T23:26:11.033Z,8.10
2023-04-19T23:28:37.450Z,7.65
2023-04-19T23:31:03.926Z,7.70
2023-04-19T23:33:30.329Z,6.80
2023-04-19T23:35:56.713Z,6.97
2023-04-19T23:38:23.128Z,6.22
2023-04-19T23:40:49.570Z,6.70
2023-04-19T23:43:15.943Z,6.60
2023-04-19T23:45:42.376Z,7.75
2023-04-19T23:48:08.846Z,9.50
2023-04-19T23:50:37.892Z,7.43
2023-04-19T23:53:05.416Z,5.97
2023-04-19T23:55:31.832Z,5.60
2023-04-19T23:57:58.525Z,8.00
